createdAt,value
2022-12-16T00:05:19.731Z,30.5
2022-12-16T00:11:06.967Z,30.5
2022-12-16T00:16:33.781Z,30.4
2022-12-16T00:22:13.767Z,30.4
2022-12-16T00:27:53.821Z,30.4
2022-12-16T00:33:34.803Z,30.3
2022-12-16T00:39:16.123Z,30.3
2022-12-16T00:44:54.477Z,30.3
2022-12-16T00:50:03.220Z,30.3
2022-12-16T00:55:28.034Z,30.2
2022-12-16T01:00:51.210Z,30.2
2022-12-16T01:06:15.517Z,30.1
2022-12-16T01:11:12.019Z,30.1
2022-12-16T01:16:19.672Z,30.1
2022-12-16T01:21:11.345Z,30
2022-12-16T01:26:50.948Z,30
2022-12-16T01:32:29.290Z,29.9
2022-12-16T01:38:37.719Z,29.9
2022-12-16T01:44:20.643Z,29.9
2022-12-16T01:49:43.938Z,29.9
2022-12-16T01:55:05.551Z,29.9
2022-12-16T02:00:43.768Z,29.8
2022-12-16T02:06:07.401Z,30
2022-12-16T02:11:14.916Z,30.4
2022-12-16T02:16:37.589Z,30.9
2022-12-16T02:21:59.919Z,31.3
2022-12-16T02:26:37.921Z,31.6
2022-12-16T02:32:26.785Z,32
2022-12-16T02:37:19.359Z,32.4
2022-12-16T02:42:44.508Z,32.9
2022-12-16T02:48:25.173Z,33.4
2022-12-16T02:54:02.538Z,33.8
2022-12-16T02:59:08.381Z,34.4
2022-12-16T03:04:47.635Z,34.8
2022-12-16T03:10:24.777Z,35.3
2022-12-16T03:15:47.600Z,35.4
2022-12-16T03:21:28.513Z,35.6
2022-12-16T03:27:06.137Z,35.8
2022-12-16T03:32:28.650Z,35.9
2022-12-16T03:38:06.957Z,36
2022-12-16T03:43:29.573Z,36.1
2022-12-16T03:48:57.036Z,36.1
2022-12-16T03:54:36.663Z,36.2
2022-12-16T04:00:20.240Z,36.2
2022-12-16T04:06:01.015Z,36.2
2022-12-16T04:11:42.770Z,36.2
2022-12-16T04:17:22.658Z,36.2
2022-12-16T04:23:03.999Z,36.2
2022-12-16T04:28:42.116Z,36.2
2022-12-16T04:34:20.917Z,36.1
2022-12-16T04:39:58.569Z,36.1
2022-12-16T04:45:38.713Z,36.1
2022-12-16T04:51:04.241Z,36.1
2022-12-16T04:56:25.950Z,36
2022-12-16T05:01:32.659Z,36
2022-12-16T05:07:12.053Z,35.9
2022-12-16T05:12:52.298Z,35.9
2022-12-16T05:18:31.421Z,35.9
2022-12-16T05:24:13.664Z,35.8
2022-12-16T05:29:40.336Z,35.8
2022-12-16T05:35:06.609Z,35.8
2022-12-16T05:40:44.585Z,35.8
2022-12-16T05:46:24.612Z,35.6
2022-12-16T05:51:51.613Z,35.6
2022-12-16T05:57:30.011Z,35.6
2022-12-16T06:03:08.969Z,35.5
2022-12-16T06:08:17.944Z,35.4
2022-12-16T06:13:55.944Z,35.4
2022-12-16T06:19:33.622Z,35.3
2022-12-16T06:25:15.704Z,35.3
2022-12-16T06:30:42.190Z,35.3
2022-12-16T06:36:24.519Z,35.2
2022-12-16T06:42:05.775Z,35.1
2022-12-16T06:47:47.185Z,35.1
2022-12-16T06:53:30.690Z,35
2022-12-16T06:59:14.705Z,35
2022-12-16T07:04:25.626Z,35
2022-12-16T07:10:04.615Z,33.7
2022-12-16T07:15:48.398Z,31.7
2022-12-16T07:21:30.861Z,30.1
2022-12-16T07:27:20.074Z,28.8
2022-12-16T07:33:03.364Z,27.6
2022-12-16T07:38:46.748Z,26.8
2022-12-16T07:44:26.756Z,26.2
2022-12-16T07:50:07.367Z,25.6
2022-12-16T07:55:47.321Z,25.1
2022-12-16T08:49:30.303Z,24.8
2022-12-16T08:55:09.742Z,40.1
2022-12-16T09:00:50.907Z,46
2022-12-16T09:06:18.134Z,48.1
2022-12-16T09:12:04.528Z,49.1
2022-12-16T09:17:44.162Z,50.2
2022-12-16T09:23:27.708Z,51.2
2022-12-16T09:29:07.560Z,52.1
2022-12-16T09:34:49.376Z,53
2022-12-16T09:40:37.084Z,53.9
2022-12-16T09:46:20.478Z,54.6
2022-12-16T09:52:01.595Z,55.4
2022-12-16T09:57:40.602Z,56
2022-12-16T10:03:08.723Z,56.6
2022-12-16T10:08:51.684Z,56.9
2022-12-16T10:14:36.000Z,57.4
2022-12-16T10:20:25.404Z,57.7
2022-12-16T10:25:53.335Z,58.1
2022-12-16T10:31:35.252Z,58.5
2022-12-16T10:37:04.843Z,58.7
2022-12-16T10:42:49.758Z,59.1
2022-12-16T10:48:29.499Z,59.4
2022-12-16T10:54:27.157Z,59.8
2022-12-16T10:59:57.035Z,60.1
2022-12-16T11:05:38.886Z,60.3
2022-12-16T11:11:18.175Z,60.4
2022-12-16T11:17:25.864Z,60.6
2022-12-16T11:23:10.730Z,60.8
2022-12-16T11:28:51.417Z,61
2022-12-16T11:34:31.995Z,61.2
2022-12-16T11:40:09.489Z,61.4
2022-12-16T11:45:59.073Z,61.5
2022-12-16T11:51:38.365Z,61.6
2022-12-16T11:57:58.901Z,61.8
2022-12-16T12:03:29.180Z,61.8
2022-12-16T12:09:08.970Z,61.7
2022-12-16T12:14:52.226Z,61.6
2022-12-16T12:20:34.005Z,61.4
2022-12-16T12:26:18.557Z,61.4
2022-12-16T12:31:56.340Z,61.2
2022-12-16T12:37:42.497Z,61.3
2022-12-16T12:43:06.402Z,61.1
2022-12-16T12:49:01.984Z,60.7
2022-12-16T12:54:11.097Z,60.4
2022-12-16T13:00:01.796Z,59.9
2022-12-16T13:05:42.593Z,59.8
2022-12-16T13:11:21.856Z,59.3
2022-12-16T13:17:04.077Z,58.3
2022-12-16T13:22:36.454Z,57.5
2022-12-16T13:28:15.248Z,56.7
2022-12-16T13:33:56.293Z,55.3
2022-12-16T13:39:42.786Z,50.4
2022-12-16T13:45:21.533Z,53.4
2022-12-16T13:51:02.533Z,50.6
2022-12-16T13:56:47.503Z,47.4
2022-12-16T14:02:17.270Z,44.9
2022-12-16T14:07:57.893Z,43
2022-12-16T14:13:22.553Z,41.5
2022-12-16T14:19:01.298Z,40.4
2022-12-16T14:25:10.060Z,37.2
2022-12-16T14:30:49.554Z,33
2022-12-16T14:36:29.262Z,27.6
2022-12-16T14:42:11.355Z,24.9
2022-12-16T14:47:34.309Z,24
2022-12-16T14:53:20.633Z,23.6
2022-12-16T14:59:00.002Z,23.4
2022-12-16T15:04:30.250Z,23.1
2022-12-16T15:10:19.064Z,22.8
2022-12-16T15:15:59.509Z,22.6
2022-12-16T15:21:42.368Z,22.3
2022-12-16T15:27:26.660Z,22.2
2022-12-16T15:33:09.396Z,22.1
2022-12-16T15:38:37.228Z,21.9
2022-12-16T15:43:59.822Z,21.8
2022-12-16T15:49:37.693Z,21.8
2022-12-16T15:55:20.575Z,21.6
2022-12-16T16:01:03.895Z,21.6
2022-12-16T16:06:32.809Z,21.4
2022-12-16T16:12:17.216Z,21.4
2022-12-16T16:18:03.839Z,21.3
2022-12-16T16:23:28.923Z,21.3
2022-12-16T16:28:55.744Z,21.3
2022-12-16T16:34:34.628Z,21.2
2022-12-16T16:39:42.285Z,21.2
2022-12-16T16:45:25.446Z,21.1
2022-12-16T16:50:52.503Z,21.1
2022-12-16T16:56:19.800Z,21
2022-12-16T17:01:58.861Z,20.9
2022-12-16T17:07:49.280Z,20.9
2022-12-16T17:13:36.802Z,20.9
2022-12-16T17:19:20.765Z,20.9
2022-12-16T17:25:04.903Z,20.8
2022-12-16T17:30:47.580Z,20.8
2022-12-16T17:36:31.563Z,20.8
2022-12-16T17:41:38.936Z,20.8
2022-12-16T17:47:18.514Z,20.7
2022-12-16T17:52:59.778Z,20.7
2022-12-16T17:58:38.234Z,20.7
2022-12-16T18:04:18.425Z,20.6
2022-12-16T18:09:27.352Z,20.6
2022-12-16T18:14:50.400Z,20.6
2022-12-16T18:20:13.587Z,20.6
2022-12-16T18:25:38.185Z,20.6
2022-12-16T18:31:01.047Z,20.6
2022-12-16T18:36:43.288Z,20.5
2022-12-16T18:42:23.574Z,20.5
2022-12-16T18:48:08.859Z,20.5
2022-12-16T18:53:20.997Z,20.4
2022-12-16T18:59:15.189Z,20.4
2022-12-16T19:04:55.300Z,20.4
2022-12-16T19:10:32.464Z,20.4
2022-12-16T19:26:56.371Z,20.4
2022-12-16T23:37:40.417Z,29.8
2022-12-16T23:43:21.789Z,29.8
2022-12-16T23:49:08.522Z,29.8
2022-12-16T23:54:35.279Z,29.8
